Time;durP1;ratioP1;P1;durP2;ratioP2;P2;SDS_P1;SDS_P2;PMS_P1;PMS_P2;Temp;Humidity;BMP_temperature;BMP_pressure;BME280_temperature;BME280_humidity;BME280_pressure;Samples;Min_cycle;Max_cycle;Signal;HPM_P1;HPM_P2
2022/12/24 00:01:54;;;;;;;28.58;3.75;;;;;;;;;;5042819;28;20030;-82
2022/12/24 00:04:19;;;;;;;34.88;3.95;;;;;;;;;;5033533;28;20417;-83
2022/12/24 00:06:44;;;;;;;28.15;3.85;;;;;;;;;;5045653;28;20025;-80
2022/12/24 00:09:09;;;;;;;28.63;3.72;;;;;;;;;;5035528;28;20018;-84
2022/12/24 00:11:35;;;;;;;28.08;3.10;;;;;;;;;;5033327;28;20018;-82
2022/12/24 00:14:00;;;;;;;29.08;3.70;;;;;;;;;;5047083;28;20132;-82
2022/12/24 00:16:25;;;;;;;30.27;3.92;;;;;;;;;;5035844;28;20017;-81
2022/12/24 00:18:50;;;;;;;40.45;4.97;;;;;;;;;;5049482;28;20030;-81
2022/12/24 00:21:16;;;;;;;32.15;4.20;;;;;;;;;;5026242;28;20064;-82
2022/12/24 00:23:41;;;;;;;37.28;4.47;;;;;;;;;;5037728;28;20117;-82
2022/12/24 00:26:06;;;;;;;26.98;2.97;;;;;;;;;;5032128;28;20116;-82
2022/12/24 00:28:31;;;;;;;31.38;3.53;;;;;;;;;;5032302;28;20089;-82
2022/12/24 00:30:57;;;;;;;20.10;3.30;;;;;;;;;;5031063;28;20492;-82
2022/12/24 00:33:22;;;;;;;26.67;3.50;;;;;;;;;;5032020;28;20131;-82
2022/12/24 00:35:49;;;;;;;32.05;4.32;;;;;;;;;;5031805;28;20098;-82
2022/12/24 00:38:14;;;;;;;33.42;4.13;;;;;;;;;;5032047;28;20370;-81
2022/12/24 00:40:39;;;;;;;26.00;3.72;;;;;;;;;;5032376;28;20022;-82
2022/12/24 00:43:04;;;;;;;33.58;3.92;;;;;;;;;;5031245;28;20029;-82
2022/12/24 00:45:29;;;;;;;28.90;4.57;;;;;;;;;;5032043;28;20024;-82
2022/12/24 00:47:55;;;;;;;35.83;4.07;;;;;;;;;;5033530;28;20461;-81
2022/12/24 00:50:20;;;;;;;25.52;3.53;;;;;;;;;;5033231;28;20047;-84
2022/12/24 00:52:45;;;;;;;28.15;3.60;;;;;;;;;;5029803;28;20010;-81
2022/12/24 00:55:10;;;;;;;19.30;2.97;;;;;;;;;;5046283;28;20117;-82
2022/12/24 00:57:36;;;;;;;32.03;4.05;;;;;;;;;;5031931;28;20038;-81
2022/12/24 01:00:01;;;;;;;27.30;3.67;;;;;;;;;;5048940;28;20100;-81
2022/12/24 01:02:26;;;;;;;26.88;2.72;;;;;;;;;;5048714;28;20327;-82
2022/12/24 01:05:10;;;;;;;26.08;2.95;;;;;;;;;;5048132;28;20022;-82
2022/12/24 01:07:36;;;;;;;36.60;4.22;;;;;;;;;;5042209;28;20030;-82
2022/12/24 01:10:02;;;;;;;35.67;3.97;;;;;;;;;;5048481;28;20433;-82
2022/12/24 01:12:27;;;;;;;28.08;3.80;;;;;;;;;;5048239;28;20037;-82
2022/12/24 01:14:53;;;;;;;29.27;3.90;;;;;;;;;;5048201;28;20025;-82
2022/12/24 01:17:18;;;;;;;31.75;3.88;;;;;;;;;;5046460;28;20029;-81
2022/12/24 01:19:43;;;;;;;32.15;4.00;;;;;;;;;;5030638;28;20029;-81
2022/12/24 01:22:08;;;;;;;29.92;3.70;;;;;;;;;;5048326;28;20013;-82
2022/12/24 01:24:33;;;;;;;25.15;3.20;;;;;;;;;;5047343;28;20034;-82
2022/12/24 01:26:59;;;;;;;30.65;3.63;;;;;;;;;;5032816;28;20013;-81
2022/12/24 01:29:24;;;;;;;23.92;3.38;;;;;;;;;;5047360;28;20029;-82
2022/12/24 01:31:49;;;;;;;25.15;2.85;;;;;;;;;;5047914;28;20014;-82
2022/12/24 01:34:14;;;;;;;21.02;3.38;;;;;;;;;;5048141;28;20044;-81
2022/12/24 01:36:40;;;;;;;29.02;3.67;;;;;;;;;;5047991;28;20021;-82
2022/12/24 01:39:05;;;;;;;22.63;2.78;;;;;;;;;;5046550;28;20069;-81
2022/12/24 01:44:17;;;;;;;24.42;3.28;;;;;;;;;;5032947;28;20035;-81
2022/12/24 01:46:43;;;;;;;25.45;3.25;;;;;;;;;;5047787;28;20560;-82
2022/12/24 01:49:10;;;;;;;28.70;2.83;;;;;;;;;;5047606;28;20037;-81
2022/12/24 01:51:43;;;;;;;14.85;2.38;;;;;;;;;;5047477;28;20393;-82
2022/12/24 01:54:14;;;;;;;24.88;3.22;;;;;;;;;;5033504;28;20389;-81
2022/12/24 01:56:43;;;;;;;19.20;3.70;;;;;;;;;;5032440;28;20048;-82
2022/12/24 01:59:10;;;;;;;16.52;3.08;;;;;;;;;;5047351;28;20359;-81
2022/12/24 02:01:36;;;;;;;22.85;3.05;;;;;;;;;;5047551;28;20018;-84
2022/12/24 02:04:04;;;;;;;19.17;2.83;;;;;;;;;;5046718;28;20366;-82
2022/12/24 02:06:29;;;;;;;19.95;2.83;;;;;;;;;;5047332;28;20492;-82
2022/12/24 02:08:54;;;;;;;17.45;2.33;;;;;;;;;;5047480;28;20021;-81
2022/12/24 02:11:20;;;;;;;20.42;4.30;;;;;;;;;;5047425;28;20067;-81
2022/12/24 02:13:48;;;;;;;22.70;2.63;;;;;;;;;;5032171;28;20121;-81
2022/12/24 02:16:37;;;;;;;24.42;2.53;;;;;;;;;;5046092;28;20017;-81
2022/12/24 02:19:18;;;;;;;15.65;2.78;;;;;;;;;;5047426;28;20116;-81
2022/12/24 02:21:43;;;;;;;15.38;2.63;;;;;;;;;;5047282;28;20068;-82
2022/12/24 02:24:11;;;;;;;18.75;2.17;;;;;;;;;;5047447;28;20466;-82
2022/12/24 02:26:49;;;;;;;19.50;2.15;;;;;;;;;;5032220;28;20029;-82
2022/12/24 02:29:33;;;;;;;16.17;2.50;;;;;;;;;;5046032;28;20029;-85
2022/12/24 02:32:01;;;;;;;13.65;2.20;;;;;;;;;;5031984;28;20017;-82
2022/12/24 02:34:37;;;;;;;21.40;1.92;;;;;;;;;;5048131;28;20477;-82
2022/12/24 02:37:05;;;;;;;19.92;2.55;;;;;;;;;;5051493;28;20022;-82
2022/12/24 02:39:36;;;;;;;23.83;2.75;;;;;;;;;;5036005;28;20017;-82
2022/12/24 02:42:04;;;;;;;17.42;2.50;;;;;;;;;;5050128;28;20112;-82
2022/12/24 02:44:30;;;;;;;17.73;1.92;;;;;;;;;;5036137;28;20039;-82
2022/12/24 02:46:58;;;;;;;20.10;2.58;;;;;;;;;;5051186;28;20449;-82
2022/12/24 02:49:23;;;;;;;14.60;2.15;;;;;;;;;;5051748;28;20087;-81
2022/12/24 02:51:48;;;;;;;21.45;2.60;;;;;;;;;;5036090;28;20025;-81
2022/12/24 02:54:13;;;;;;;22.55;2.80;;;;;;;;;;5034608;28;20048;-82
2022/12/24 02:56:58;;;;;;;10.95;2.22;;;;;;;;;;5051205;28;20031;-82
2022/12/24 02:59:39;;;;;;;17.25;2.83;;;;;;;;;;5050769;28;20060;-82
2022/12/24 03:02:23;;;;;;;23.02;2.67;;;;;;;;;;5050918;28;20025;-82
2022/12/24 03:05:07;;;;;;;20.83;2.60;;;;;;;;;;5049858;28;20044;-82
2022/12/24 03:07:56;;;;;;;29.92;2.88;;;;;;;;;;5035434;28;20021;-82
2022/12/24 03:10:21;;;;;;;19.35;3.05;;;;;;;;;;5048704;28;20385;-82
2022/12/24 03:12:49;;;;;;;26.88;2.95;;;;;;;;;;5015800;28;20030;-82
2022/12/24 03:15:15;;;;;;;29.13;3.95;;;;;;;;;;5045270;28;20531;-85
2022/12/24 03:17:42;;;;;;;17.05;2.90;;;;;;;;;;5038081;28;20047;-83
2022/12/24 03:20:07;;;;;;;22.60;3.33;;;;;;;;;;5044076;28;20513;-83
2022/12/24 03:22:33;;;;;;;22.27;2.63;;;;;;;;;;5043123;28;20109;-84
2022/12/24 03:24:58;;;;;;;20.23;2.85;;;;;;;;;;5034613;28;20025;-83
2022/12/24 03:27:25;;;;;;;21.65;3.58;;;;;;;;;;5034001;28;20025;-84
2022/12/24 03:29:50;;;;;;;26.13;3.40;;;;;;;;;;5021454;28;20033;-84
2022/12/24 03:32:21;;;;;;;23.42;3.33;;;;;;;;;;5050710;28;20010;-83
2022/12/24 03:34:47;;;;;;;24.80;3.20;;;;;;;;;;5035331;28;20022;-81
2022/12/24 03:37:12;;;;;;;24.15;3.35;;;;;;;;;;5034228;28;20021;-84
2022/12/24 03:39:37;;;;;;;19.95;2.97;;;;;;;;;;5030341;28;20030;-84
2022/12/24 03:42:02;;;;;;;21.35;3.13;;;;;;;;;;5049091;28;20514;-82
2022/12/24 03:44:27;;;;;;;26.65;3.33;;;;;;;;;;5034980;28;20013;-82
2022/12/24 03:46:53;;;;;;;27.40;3.25;;;;;;;;;;5034695;28;20071;-83
2022/12/24 03:49:18;;;;;;;23.75;3.50;;;;;;;;;;5049624;28;20477;-82
2022/12/24 03:51:43;;;;;;;21.63;3.67;;;;;;;;;;5033461;28;20102;-82
2022/12/24 03:54:08;;;;;;;14.32;2.70;;;;;;;;;;5035961;28;20013;-84
2022/12/24 03:56:33;;;;;;;20.90;3.28;;;;;;;;;;5049900;28;20021;-84
2022/12/24 03:58:59;;;;;;;17.65;3.35;;;;;;;;;;5049796;28;20022;-84
2022/12/24 04:01:24;;;;;;;13.93;2.33;;;;;;;;;;5049587;28;20037;-84
2022/12/24 04:03:49;;;;;;;20.50;3.25;;;;;;;;;;5034107;28;20036;-85
2022/12/24 04:06:16;;;;;;;23.58;2.80;;;;;;;;;;5049873;28;20346;-84
2022/12/24 04:08:41;;;;;;;24.70;3.00;;;;;;;;;;5049853;28;20030;-84
2022/12/24 04:11:08;;;;;;;18.48;2.63;;;;;;;;;;5049555;28;20453;-84
2022/12/24 04:13:33;;;;;;;23.70;3.95;;;;;;;;;;5048727;28;20123;-84
2022/12/24 04:15:59;;;;;;;15.13;2.90;;;;;;;;;;5034229;28;20442;-84
2022/12/24 04:18:25;;;;;;;17.25;3.10;;;;;;;;;;5034113;28;20037;-84
2022/12/24 04:20:50;;;;;;;16.83;3.47;;;;;;;;;;5035340;28;20088;-84
2022/12/24 04:23:15;;;;;;;18.02;3.00;;;;;;;;;;5049647;28;20041;-84
2022/12/24 04:25:41;;;;;;;25.52;4.20;;;;;;;;;;5033595;28;20032;-83
2022/12/24 04:28:06;;;;;;;23.05;3.08;;;;;;;;;;5032631;28;20493;-84
2022/12/24 04:30:31;;;;;;;22.80;4.70;;;;;;;;;;5034060;28;20029;-84
2022/12/24 04:32:56;;;;;;;20.95;3.40;;;;;;;;;;5034096;28;20033;-84
2022/12/24 04:35:21;;;;;;;24.35;3.88;;;;;;;;;;5033988;28;20041;-84
2022/12/24 04:37:47;;;;;;;25.75;3.30;;;;;;;;;;5048392;28;20490;-83
2022/12/24 04:40:12;;;;;;;20.60;3.22;;;;;;;;;;5022445;28;20168;-84
2022/12/24 04:42:37;;;;;;;23.25;3.13;;;;;;;;;;5049078;28;20028;-84
2022/12/24 04:45:02;;;;;;;28.95;3.92;;;;;;;;;;5048875;28;20020;-83
2022/12/24 04:47:27;;;;;;;29.88;3.92;;;;;;;;;;5033033;28;20017;-83
2022/12/24 04:49:53;;;;;;;26.38;3.67;;;;;;;;;;5032338;28;20026;-83
2022/12/24 04:52:18;;;;;;;21.30;3.55;;;;;;;;;;5048823;28;20033;-84
2022/12/24 04:54:43;;;;;;;23.30;3.30;;;;;;;;;;5033857;28;20021;-84
2022/12/24 04:57:08;;;;;;;25.42;3.28;;;;;;;;;;5033380;28;20014;-84
2022/12/24 04:59:33;;;;;;;24.77;4.30;;;;;;;;;;5048277;28;20111;-84
2022/12/24 05:01:59;;;;;;;23.75;4.00;;;;;;;;;;5048703;28;20585;-84
2022/12/24 05:04:24;;;;;;;22.35;3.13;;;;;;;;;;5033387;28;20473;-84
2022/12/24 05:06:49;;;;;;;27.58;4.18;;;;;;;;;;5048529;28;20127;-84
2022/12/24 05:09:14;;;;;;;27.42;3.90;;;;;;;;;;5033549;28;20101;-84
2022/12/24 05:11:39;;;;;;;30.23;3.95;;;;;;;;;;5047878;28;20376;-84
2022/12/24 05:14:05;;;;;;;23.45;3.88;;;;;;;;;;5033126;28;20020;-84
2022/12/24 05:16:30;;;;;;;18.35;3.20;;;;;;;;;;5033205;28;20013;-83
2022/12/24 05:18:55;;;;;;;26.23;3.45;;;;;;;;;;5032829;28;20370;-81
2022/12/24 05:21:22;;;;;;;32.72;4.10;;;;;;;;;;5018371;28;20469;-83
2022/12/24 05:26:31;;;;;;;35.67;3.47;;;;;;;;;;5033210;28;20543;-84
2022/12/24 05:28:58;;;;;;;32.53;3.50;;;;;;;;;;5048305;28;20057;-84
2022/12/24 05:31:24;;;;;;;31.05;3.80;;;;;;;;;;5032740;28;20024;-83
2022/12/24 05:33:49;;;;;;;23.08;3.20;;;;;;;;;;5047430;28;20377;-83
2022/12/24 05:36:15;;;;;;;18.35;2.97;;;;;;;;;;5031471;28;20120;-83
2022/12/24 05:38:40;;;;;;;30.13;3.10;;;;;;;;;;5043186;28;20026;-83
2022/12/24 05:41:06;;;;;;;28.40;3.70;;;;;;;;;;5041754;28;20518;-83
2022/12/24 05:43:31;;;;;;;33.22;3.33;;;;;;;;;;5048042;28;20018;-83
2022/12/24 05:46:00;;;;;;;23.60;3.25;;;;;;;;;;5047262;28;20021;-84
2022/12/24 05:48:25;;;;;;;32.95;4.38;;;;;;;;;;5032843;28;20029;-84
2022/12/24 05:50:50;;;;;;;26.92;3.53;;;;;;;;;;5047980;28;20028;-84
2022/12/24 05:53:16;;;;;;;26.80;4.20;;;;;;;;;;5047812;28;20037;-83
2022/12/24 05:55:41;;;;;;;24.33;3.38;;;;;;;;;;5032751;28;20036;-83
2022/12/24 05:58:06;;;;;;;36.95;3.80;;;;;;;;;;5047093;28;20057;-84
2022/12/24 06:00:31;;;;;;;31.98;4.10;;;;;;;;;;5047621;28;20017;-84
2022/12/24 06:02:57;;;;;;;29.25;4.75;;;;;;;;;;5047945;28;20027;-83
2022/12/24 06:05:22;;;;;;;23.85;3.22;;;;;;;;;;5047583;28;20446;-84
2022/12/24 06:07:47;;;;;;;23.25;3.45;;;;;;;;;;5032342;28;20017;-83
2022/12/24 06:10:13;;;;;;;29.00;4.38;;;;;;;;;;5042719;28;20394;-83
2022/12/24 06:12:38;;;;;;;28.52;3.63;;;;;;;;;;5032262;28;20481;-83
2022/12/24 06:15:04;;;;;;;30.05;4.18;;;;;;;;;;5047640;28;20217;-83
2022/12/24 06:17:29;;;;;;;34.95;4.07;;;;;;;;;;5047342;28;20029;-83
2022/12/24 06:19:55;;;;;;;31.45;3.88;;;;;;;;;;5041508;28;20018;-83
2022/12/24 06:22:20;;;;;;;26.35;3.30;;;;;;;;;;5032317;28;20099;-81
2022/12/24 06:24:45;;;;;;;34.58;4.45;;;;;;;;;;5047190;28;20393;-84
2022/12/24 06:27:10;;;;;;;31.90;4.20;;;;;;;;;;5032251;28;20321;-83
2022/12/24 06:29:35;;;;;;;27.55;3.70;;;;;;;;;;5047364;28;20529;-83
2022/12/24 06:32:01;;;;;;;27.27;2.97;;;;;;;;;;5031834;28;20105;-82
2022/12/24 06:34:26;;;;;;;22.35;3.60;;;;;;;;;;5030485;28;20188;-83
2022/12/24 06:36:51;;;;;;;25.42;3.45;;;;;;;;;;5032118;28;20013;-83
2022/12/24 06:39:16;;;;;;;20.55;3.70;;;;;;;;;;5047224;28;20092;-83
2022/12/24 06:41:41;;;;;;;25.65;3.83;;;;;;;;;;5031855;28;20092;-83
2022/12/24 06:44:07;;;;;;;26.83;3.00;;;;;;;;;;5046608;28;20024;-83
2022/12/24 06:46:32;;;;;;;26.85;3.38;;;;;;;;;;5047312;28;20047;-83
2022/12/24 06:48:57;;;;;;;36.88;4.22;;;;;;;;;;5047397;28;20025;-83
2022/12/24 06:51:23;;;;;;;40.08;3.90;;;;;;;;;;5031855;28;20053;-82
2022/12/24 06:53:49;;;;;;;29.08;3.78;;;;;;;;;;5046576;28;20037;-83
2022/12/24 06:56:15;;;;;;;23.88;3.45;;;;;;;;;;5031997;28;20026;-82
2022/12/24 06:58:40;;;;;;;23.67;3.40;;;;;;;;;;5031685;28;20030;-83
2022/12/24 07:01:06;;;;;;;27.27;3.45;;;;;;;;;;5031828;28;20083;-83
2022/12/24 07:03:32;;;;;;;28.05;3.95;;;;;;;;;;5047052;28;20500;-84
2022/12/24 07:05:57;;;;;;;30.88;3.97;;;;;;;;;;5046247;28;20108;-83
2022/12/24 07:08:22;;;;;;;24.02;3.45;;;;;;;;;;5030515;28;20566;-83
2022/12/24 07:10:48;;;;;;;31.50;3.75;;;;;;;;;;5033155;28;20022;-83
2022/12/24 07:13:14;;;;;;;35.28;4.35;;;;;;;;;;5043715;28;20051;-82
2022/12/24 07:15:39;;;;;;;36.47;4.68;;;;;;;;;;5029282;28;20381;-82
2022/12/24 07:18:04;;;;;;;23.70;3.35;;;;;;;;;;5028148;28;20026;-83
2022/12/24 07:20:30;;;;;;;27.40;3.47;;;;;;;;;;5026369;28;20017;-82
2022/12/24 07:22:55;;;;;;;33.83;4.18;;;;;;;;;;5031192;28;20354;-83
2022/12/24 07:25:20;;;;;;;35.97;3.97;;;;;;;;;;5035351;28;20025;-83
2022/12/24 07:27:45;;;;;;;34.95;4.32;;;;;;;;;;5035838;28;20021;-84
2022/12/24 07:30:11;;;;;;;19.17;3.33;;;;;;;;;;5036797;28;20365;-84
2022/12/24 07:32:36;;;;;;;36.90;3.60;;;;;;;;;;5034372;28;20032;-84
2022/12/24 07:35:02;;;;;;;35.45;4.03;;;;;;;;;;5031650;28;20067;-84
2022/12/24 07:37:27;;;;;;;30.35;4.63;;;;;;;;;;5035416;28;20109;-84
2022/12/24 07:39:52;;;;;;;27.27;4.75;;;;;;;;;;5042390;28;20067;-84
2022/12/24 07:42:17;;;;;;;31.70;3.58;;;;;;;;;;5049907;28;20160;-84
2022/12/24 07:44:42;;;;;;;33.50;3.78;;;;;;;;;;5034556;28;20066;-83
2022/12/24 07:47:08;;;;;;;29.52;3.72;;;;;;;;;;5049859;28;20041;-84
2022/12/24 07:49:33;;;;;;;30.65;4.30;;;;;;;;;;5033951;28;20029;-83
2022/12/24 07:51:59;;;;;;;27.05;4.40;;;;;;;;;;5048587;28;20395;-84
2022/12/24 07:54:24;;;;;;;40.13;3.75;;;;;;;;;;5048633;28;20026;-84
2022/12/24 07:56:49;;;;;;;27.48;3.53;;;;;;;;;;5033598;28;20083;-84
2022/12/24 07:59:14;;;;;;;33.25;3.95;;;;;;;;;;5048158;28;20033;-83
2022/12/24 08:01:40;;;;;;;29.27;3.90;;;;;;;;;;5030566;28;20079;-84
2022/12/24 08:04:05;;;;;;;30.17;3.75;;;;;;;;;;5049639;28;20017;-84
2022/12/24 08:06:31;;;;;;;29.77;3.67;;;;;;;;;;5049903;28;20052;-83
2022/12/24 08:08:56;;;;;;;28.48;3.85;;;;;;;;;;5049526;28;20049;-83
2022/12/24 08:11:21;;;;;;;31.15;4.03;;;;;;;;;;5048627;28;20480;-83
2022/12/24 08:13:46;;;;;;;35.20;3.47;;;;;;;;;;5032658;28;20071;-83
2022/12/24 08:16:11;;;;;;;27.65;3.50;;;;;;;;;;5030742;28;20025;-83
2022/12/24 08:18:37;;;;;;;39.60;4.82;;;;;;;;;;5028736;28;20627;-83
2022/12/24 08:21:02;;;;;;;35.95;3.90;;;;;;;;;;5035993;28;20013;-84
2022/12/24 08:23:27;;;;;;;34.53;4.10;;;;;;;;;;5032942;28;20017;-83
2022/12/24 08:25:53;;;;;;;30.23;3.88;;;;;;;;;;5031055;28;20013;-83
2022/12/24 08:28:19;;;;;;;27.23;3.95;;;;;;;;;;5046818;28;20026;-84
2022/12/24 08:30:44;;;;;;;31.05;3.65;;;;;;;;;;5047531;28;20025;-84
2022/12/24 08:33:10;;;;;;;28.80;4.00;;;;;;;;;;5032735;28;20392;-83
2022/12/24 08:35:35;;;;;;;24.08;3.55;;;;;;;;;;5030038;28;20025;-83
2022/12/24 08:38:00;;;;;;;28.48;4.25;;;;;;;;;;5031524;28;20029;-84
2022/12/24 08:40:25;;;;;;;29.63;4.07;;;;;;;;;;5047825;28;20109;-83
2022/12/24 08:42:51;;;;;;;31.15;4.38;;;;;;;;;;5049481;28;20017;-83
2022/12/24 08:45:16;;;;;;;35.28;5.10;;;;;;;;;;5048074;28;20129;-83
2022/12/24 08:47:41;;;;;;;36.78;5.20;;;;;;;;;;5032176;28;20018;-83
2022/12/24 08:50:07;;;;;;;39.92;4.90;;;;;;;;;;5024133;28;20048;-83
2022/12/24 08:52:32;;;;;;;35.08;3.80;;;;;;;;;;5026495;28;20468;-83
2022/12/24 08:54:58;;;;;;;31.90;4.97;;;;;;;;;;5032249;28;20056;-83
2022/12/24 08:57:23;;;;;;;36.78;4.13;;;;;;;;;;5032938;28;20067;-83
2022/12/24 08:59:48;;;;;;;38.20;4.43;;;;;;;;;;5033594;28;20014;-83
2022/12/24 09:02:13;;;;;;;32.53;3.63;;;;;;;;;;5033455;28;20014;-83
2022/12/24 09:04:39;;;;;;;31.10;4.00;;;;;;;;;;5033501;28;20147;-84
2022/12/24 09:07:04;;;;;;;22.77;3.78;;;;;;;;;;5031275;28;20116;-83
2022/12/24 09:09:29;;;;;;;27.48;4.32;;;;;;;;;;5032523;28;20026;-84
2022/12/24 09:11:55;;;;;;;34.60;4.20;;;;;;;;;;5031911;28;20543;-82
2022/12/24 09:14:20;;;;;;;29.98;4.47;;;;;;;;;;5031835;28;20105;-84
2022/12/24 09:16:45;;;;;;;29.55;3.67;;;;;;;;;;5031152;28;20033;-83
2022/12/24 09:19:10;;;;;;;27.30;3.92;;;;;;;;;;5030539;28;20021;-83
2022/12/24 09:21:35;;;;;;;35.25;3.67;;;;;;;;;;5035880;28;20449;-83
2022/12/24 09:24:02;;;;;;;28.40;3.95;;;;;;;;;;5027184;28;20014;-84
2022/12/24 09:26:28;;;;;;;34.80;4.30;;;;;;;;;;5045815;28;20116;-83
2022/12/24 09:28:55;;;;;;;25.13;3.47;;;;;;;;;;5023859;28;20063;-84
2022/12/24 09:31:20;;;;;;;27.58;3.78;;;;;;;;;;5043165;28;20033;-83
2022/12/24 09:33:47;;;;;;;29.23;5.03;;;;;;;;;;5041393;28;20444;-82
2022/12/24 09:36:13;;;;;;;35.15;4.43;;;;;;;;;;5041521;28;20018;-83
2022/12/24 09:38:41;;;;;;;27.10;3.35;;;;;;;;;;5024949;28;20363;-83
2022/12/24 09:41:10;;;;;;;26.52;4.63;;;;;;;;;;5028235;28;20461;-83
2022/12/24 09:43:36;;;;;;;27.35;3.67;;;;;;;;;;5030706;28;20437;-83
2022/12/24 09:46:08;;;;;;;33.90;3.85;;;;;;;;;;5028930;28;20052;-83
2022/12/24 09:48:34;;;;;;;36.50;4.82;;;;;;;;;;5035503;28;20036;-83
2022/12/24 09:50:59;;;;;;;29.33;3.78;;;;;;;;;;5042212;28;20050;-83
2022/12/24 09:53:28;;;;;;;26.48;3.58;;;;;;;;;;5032393;28;20536;-83
2022/12/24 09:55:56;;;;;;;33.55;3.97;;;;;;;;;;5030678;28;20079;-83
2022/12/24 09:58:42;;;;;;;34.65;4.38;;;;;;;;;;5023299;28;20038;-82
2022/12/24 10:01:11;;;;;;;22.80;4.05;;;;;;;;;;5025563;28;20029;-85
2022/12/24 10:03:36;;;;;;;29.65;4.80;;;;;;;;;;5031988;28;20029;-82
2022/12/24 10:06:01;;;;;;;26.92;4.10;;;;;;;;;;5029632;28;20464;-83
2022/12/24 10:08:27;;;;;;;28.77;3.65;;;;;;;;;;5028620;28;20033;-84
2022/12/24 10:10:53;;;;;;;21.58;3.70;;;;;;;;;;5029293;28;20013;-83
2022/12/24 10:13:28;;;;;;;26.70;3.53;;;;;;;;;;5036427;28;20363;-83
2022/12/24 10:16:02;;;;;;;27.63;4.95;;;;;;;;;;5026448;28;20024;-83
2022/12/24 10:18:46;;;;;;;31.33;3.70;;;;;;;;;;5023957;28;20093;-83
2022/12/24 10:21:14;;;;;;;31.67;4.85;;;;;;;;;;5031011;28;20381;-83
2022/12/24 10:23:42;;;;;;;25.15;4.30;;;;;;;;;;5046230;28;20020;-83
2022/12/24 10:26:26;;;;;;;35.00;5.55;;;;;;;;;;5016334;28;20371;-83
2022/12/24 10:29:05;;;;;;;28.75;4.03;;;;;;;;;;5043344;28;20499;-83
2022/12/24 10:31:32;;;;;;;26.83;4.18;;;;;;;;;;5025739;28;20026;-82
2022/12/24 10:34:00;;;;;;;22.67;4.75;;;;;;;;;;5046855;28;20112;-84
2022/12/24 10:36:27;;;;;;;32.50;4.68;;;;;;;;;;5046764;28;20021;-84
2022/12/24 10:38:52;;;;;;;28.80;4.45;;;;;;;;;;5048658;28;20107;-82
2022/12/24 10:41:17;;;;;;;25.30;3.97;;;;;;;;;;5028338;28;20065;-82
2022/12/24 10:43:44;;;;;;;34.63;4.40;;;;;;;;;;5041116;28;20089;-82
2022/12/24 10:46:12;;;;;;;27.00;3.63;;;;;;;;;;5047161;28;20028;-82
2022/12/24 10:48:42;;;;;;;34.47;5.35;;;;;;;;;;5045041;28;20031;-82
2022/12/24 10:51:19;;;;;;;29.50;4.32;;;;;;;;;;5021435;28;20171;-82
2022/12/24 10:53:49;;;;;;;22.98;3.88;;;;;;;;;;5029324;28;20025;-82
2022/12/24 10:56:15;;;;;;;28.95;4.75;;;;;;;;;;5033013;28;20093;-84
2022/12/24 10:58:44;;;;;;;37.75;5.68;;;;;;;;;;5047291;28;20473;-83
2022/12/24 11:01:10;;;;;;;37.33;5.85;;;;;;;;;;5032771;28;20545;-83
2022/12/24 11:03:36;;;;;;;34.42;5.13;;;;;;;;;;5035298;28;20073;-84
2022/12/24 11:06:10;;;;;;;30.52;3.72;;;;;;;;;;5047364;28;20131;-83
2022/12/24 11:08:40;;;;;;;31.27;4.78;;;;;;;;;;5030053;28;20025;-82
2022/12/24 11:11:11;;;;;;;22.75;4.30;;;;;;;;;;5033297;28;20076;-82
2022/12/24 11:13:43;;;;;;;28.83;3.75;;;;;;;;;;5032825;28;20113;-82
2022/12/24 11:16:16;;;;;;;32.10;4.60;;;;;;;;;;5043758;28;20028;-84
2022/12/24 11:18:52;;;;;;;37.35;4.93;;;;;;;;;;5029165;28;20026;-83
2022/12/24 11:21:19;;;;;;;19.40;3.63;;;;;;;;;;5038999;28;20104;-83
2022/12/24 11:23:52;;;;;;;33.08;5.30;;;;;;;;;;5038289;28;20080;-83
2022/12/24 11:26:20;;;;;;;28.05;4.10;;;;;;;;;;5025564;28;20029;-82
2022/12/24 11:29:01;;;;;;;25.70;3.70;;;;;;;;;;5028928;28;20029;-83
2022/12/24 11:31:28;;;;;;;31.63;4.70;;;;;;;;;;5044118;28;20443;-83
2022/12/24 11:33:53;;;;;;;27.27;3.67;;;;;;;;;;5027743;28;20048;-84
2022/12/24 11:36:20;;;;;;;31.63;4.65;;;;;;;;;;5041780;28;20064;-82
2022/12/24 11:38:52;;;;;;;29.52;4.40;;;;;;;;;;5025849;28;20052;-82
2022/12/24 11:41:17;;;;;;;30.35;4.25;;;;;;;;;;5028422;28;20017;-82
2022/12/24 11:43:43;;;;;;;25.17;4.07;;;;;;;;;;5029315;28;20017;-84
2022/12/24 11:46:14;;;;;;;25.52;4.00;;;;;;;;;;5032823;28;20029;-84
2022/12/24 11:48:39;;;;;;;31.27;3.83;;;;;;;;;;5031130;28;20397;-84
2022/12/24 11:51:06;;;;;;;21.40;3.78;;;;;;;;;;5039155;28;20021;-84
2022/12/24 11:53:45;;;;;;;31.65;4.00;;;;;;;;;;5031620;28;20025;-84
2022/12/24 11:56:29;;;;;;;23.60;3.67;;;;;;;;;;5031692;28;20037;-84
2022/12/24 11:58:58;;;;;;;32.58;3.55;;;;;;;;;;5038241;28;20121;-83
2022/12/24 12:01:34;;;;;;;27.08;4.38;;;;;;;;;;5049118;28;20386;-84
2022/12/24 12:04:05;;;;;;;26.48;4.25;;;;;;;;;;5049103;28;20013;-84
2022/12/24 12:06:34;;;;;;;21.75;2.97;;;;;;;;;;5032711;28;20377;-84
2022/12/24 12:09:01;;;;;;;23.48;3.83;;;;;;;;;;5041543;28;20082;-85
2022/12/24 12:11:27;;;;;;;29.88;3.15;;;;;;;;;;5032061;28;20037;-87
2022/12/24 12:13:54;;;;;;;32.75;3.55;;;;;;;;;;5031519;28;20028;-86
2022/12/24 12:16:28;;;;;;;26.92;3.65;;;;;;;;;;5034043;28;20036;-85
2022/12/24 12:18:56;;;;;;;26.73;4.30;;;;;;;;;;5035915;28;20017;-86
2022/12/24 12:21:24;;;;;;;31.63;3.97;;;;;;;;;;5030986;28;20025;-86
2022/12/24 12:23:54;;;;;;;32.78;3.65;;;;;;;;;;5032457;28;20025;-85
2022/12/24 12:26:27;;;;;;;31.30;3.50;;;;;;;;;;5048372;28;20021;-87
2022/12/24 12:29:11;;;;;;;32.53;3.97;;;;;;;;;;5054487;28;20032;-84
2022/12/24 12:31:53;;;;;;;24.40;3.75;;;;;;;;;;5044760;28;20021;-82
2022/12/24 12:34:37;;;;;;;29.90;3.83;;;;;;;;;;5031924;28;20164;-82
2022/12/24 12:37:29;;;;;;;25.10;3.35;;;;;;;;;;5033644;28;20414;-82
2022/12/24 12:39:54;;;;;;;31.40;4.07;;;;;;;;;;5031515;28;20037;-82
2022/12/24 12:42:31;;;;;;;26.23;3.85;;;;;;;;;;5047257;28;20018;-84
2022/12/24 12:45:15;;;;;;;25.80;2.95;;;;;;;;;;5030597;28;20108;-83
2022/12/24 12:47:41;;;;;;;32.70;3.80;;;;;;;;;;5038284;28;20096;-82
2022/12/24 12:50:24;;;;;;;28.00;4.15;;;;;;;;;;5032161;28;20548;-82
2022/12/24 12:53:02;;;;;;;29.25;3.17;;;;;;;;;;5036039;28;20473;-82
2022/12/24 12:55:46;;;;;;;27.05;3.10;;;;;;;;;;5031372;28;20608;-83
2022/12/24 12:58:17;;;;;;;40.03;5.03;;;;;;;;;;5032652;28;20031;-82
2022/12/24 13:00:45;;;;;;;28.63;3.37;;;;;;;;;;5031769;28;20382;-82
2022/12/24 13:03:29;;;;;;;27.63;3.67;;;;;;;;;;5045273;28;20778;-82
2022/12/24 13:06:01;;;;;;;32.70;4.55;;;;;;;;;;5034226;28;20025;-82
2022/12/24 13:08:29;;;;;;;24.70;2.83;;;;;;;;;;5034649;28;20029;-82
2022/12/24 13:11:13;;;;;;;27.35;3.58;;;;;;;;;;5046623;28;20021;-82
2022/12/24 13:14:10;;;;;;;28.15;3.47;;;;;;;;;;5031195;28;20026;-82
2022/12/24 13:16:51;;;;;;;27.90;3.67;;;;;;;;;;5039734;28;20037;-82
2022/12/24 13:19:19;;;;;;;28.27;4.32;;;;;;;;;;5051171;28;20507;-82
2022/12/24 13:21:47;;;;;;;33.15;4.25;;;;;;;;;;5046151;28;20017;-82
2022/12/24 13:24:17;;;;;;;25.88;5.03;;;;;;;;;;5032300;28;20568;-82
2022/12/24 13:26:58;;;;;;;28.70;4.32;;;;;;;;;;5030829;28;20041;-82
2022/12/24 13:29:30;;;;;;;28.05;3.72;;;;;;;;;;5036269;28;20100;-82
2022/12/24 13:32:15;;;;;;;27.08;4.72;;;;;;;;;;5046530;28;20025;-82
2022/12/24 13:34:46;;;;;;;32.58;3.85;;;;;;;;;;5029788;28;20029;-82
2022/12/24 13:37:37;;;;;;;27.45;3.78;;;;;;;;;;5030245;28;20048;-82
2022/12/24 13:40:02;;;;;;;25.80;4.30;;;;;;;;;;5029476;28;20072;-82
2022/12/24 13:42:47;;;;;;;32.25;3.95;;;;;;;;;;5034090;28;20065;-83
2022/12/24 13:45:27;;;;;;;29.98;4.35;;;;;;;;;;5030011;28;20050;-82
2022/12/24 13:47:52;;;;;;;27.67;4.03;;;;;;;;;;5048885;28;20637;-82
2022/12/24 13:50:36;;;;;;;29.13;4.22;;;;;;;;;;5029646;28;20032;-82
2022/12/24 13:53:01;;;;;;;15.95;2.97;;;;;;;;;;5047108;28;20032;-81
2022/12/24 13:55:27;;;;;;;29.98;4.32;;;;;;;;;;5035099;28;20035;-82
2022/12/24 13:57:57;;;;;;;30.40;4.50;;;;;;;;;;5034349;28;20109;-82
2022/12/24 14:00:27;;;;;;;18.75;2.97;;;;;;;;;;5029513;28;20445;-81
2022/12/24 14:02:56;;;;;;;24.77;3.85;;;;;;;;;;5039906;28;20056;-81
2022/12/24 14:05:27;;;;;;;30.13;4.25;;;;;;;;;;5042425;28;20342;-82
2022/12/24 14:07:53;;;;;;;20.08;3.15;;;;;;;;;;5027280;28;20032;-82
2022/12/24 14:10:23;;;;;;;25.05;3.28;;;;;;;;;;5036950;28;20495;-82
2022/12/24 14:12:50;;;;;;;24.90;3.72;;;;;;;;;;5027004;28;20401;-82
2022/12/24 14:15:34;;;;;;;25.02;4.50;;;;;;;;;;5029707;28;20033;-82
2022/12/24 14:17:59;;;;;;;26.13;4.82;;;;;;;;;;5030545;28;20389;-82
2022/12/24 14:20:24;;;;;;;18.38;3.05;;;;;;;;;;5026604;28;20029;-82
2022/12/24 14:22:50;;;;;;;20.92;3.90;;;;;;;;;;5030158;28;20024;-82
2022/12/24 14:25:17;;;;;;;25.23;3.42;;;;;;;;;;5031423;28;20017;-82
2022/12/24 14:27:55;;;;;;;27.00;3.72;;;;;;;;;;5032332;28;20385;-82
2022/12/24 14:30:21;;;;;;;17.98;2.97;;;;;;;;;;5027823;28;20026;-82
2022/12/24 14:32:47;;;;;;;24.25;3.75;;;;;;;;;;5043595;28;20028;-82
2022/12/24 14:35:14;;;;;;;14.35;2.97;;;;;;;;;;5045343;28;20445;-82
2022/12/24 14:37:45;;;;;;;24.58;3.72;;;;;;;;;;5040857;28;20472;-82
2022/12/24 14:40:19;;;;;;;27.35;4.65;;;;;;;;;;5029073;28;20351;-82
2022/12/24 14:42:55;;;;;;;21.83;3.95;;;;;;;;;;5043998;28;20472;-82